sensor_id;sensor_type;location;lat;lon;timestamp;P1;durP1;ratioP1;P2;durP2;ratioP2
80400;SDS011;69727;53.132;8.230;2023-09-19T00:00:00;11.90;;;4.47;;
80400;SDS011;69727;53.132;8.230;2023-09-19T00:02:26;10.32;;;4.13;;
80400;SDS011;69727;53.132;8.230;2023-09-19T00:04:52;10.00;;;4.38;;
80400;SDS011;69727;53.132;8.230;2023-09-19T00:07:18;14.88;;;4.60;;
80400;SDS011;69727;53.132;8.230;2023-09-19T00:09:44;8.55;;;4.20;;
80400;SDS011;69727;53.132;8.230;2023-09-19T00:12:09;13.00;;;4.50;;
80400;SDS011;69727;53.132;8.230;2023-09-19T00:14:35;10.10;;;4.35;;
80400;SDS011;69727;53.132;8.230;2023-09-19T00:17:03;17.45;;;4.80;;
80400;SDS011;69727;53.132;8.230;2023-09-19T00:19:33;12.07;;;4.60;;
80400;SDS011;69727;53.132;8.230;2023-09-19T00:22:00;14.27;;;4.15;;
80400;SDS011;69727;53.132;8.230;2023-09-19T00:24:26;9.95;;;3.90;;
80400;SDS011;69727;53.132;8.230;2023-09-19T00:26:53;8.52;;;3.35;;
80400;SDS011;69727;53.132;8.230;2023-09-19T00:29:20;9.48;;;3.38;;
80400;SDS011;69727;53.132;8.230;2023-09-19T00:31:46;11.27;;;3.35;;
80400;SDS011;69727;53.132;8.230;2023-09-19T00:34:11;9.13;;;3.20;;
80400;SDS011;69727;53.132;8.230;2023-09-19T00:36:37;13.25;;;3.22;;
80400;SDS011;69727;53.132;8.230;2023-09-19T00:39:06;8.23;;;2.70;;
80400;SDS011;69727;53.132;8.230;2023-09-19T00:41:32;6.75;;;2.67;;
80400;SDS011;69727;53.132;8.230;2023-09-19T00:43:59;8.82;;;2.55;;
80400;SDS011;69727;53.132;8.230;2023-09-19T00:46:26;9.93;;;2.80;;
80400;SDS011;69727;53.132;8.230;2023-09-19T00:48:52;8.50;;;2.58;;
80400;SDS011;69727;53.132;8.230;2023-09-19T00:51:17;7.22;;;2.20;;
80400;SDS011;69727;53.132;8.230;2023-09-19T00:53:45;8.50;;;2.67;;
80400;SDS011;69727;53.132;8.230;2023-09-19T00:56:11;11.57;;;2.42;;
80400;SDS011;69727;53.132;8.230;2023-09-19T00:58:37;10.55;;;2.15;;
80400;SDS011;69727;53.132;8.230;2023-09-19T01:01:03;6.32;;;2.10;;
80400;SDS011;69727;53.132;8.230;2023-09-19T01:03:32;6.93;;;2.28;;
80400;SDS011;69727;53.132;8.230;2023-09-19T01:05:59;6.95;;;2.28;;
80400;SDS011;69727;53.132;8.230;2023-09-19T01:08:25;8.23;;;2.58;;
80400;SDS011;69727;53.132;8.230;2023-09-19T01:11:17;8.20;;;2.28;;
80400;SDS011;69727;53.132;8.230;2023-09-19T01:13:58;8.00;;;2.15;;
80400;SDS011;69727;53.132;8.230;2023-09-19T01:17:17;5.82;;;1.80;;
80400;SDS011;69727;53.132;8.230;2023-09-19T01:30:56;7.18;;;1.83;;
80400;SDS011;69727;53.132;8.230;2023-09-19T01:33:24;7.57;;;1.75;;
80400;SDS011;69727;53.132;8.230;2023-09-19T01:35:50;6.55;;;1.77;;
80400;SDS011;69727;53.132;8.230;2023-09-19T01:38:17;4.32;;;1.88;;
80400;SDS011;69727;53.132;8.230;2023-09-19T01:40:47;5.78;;;1.83;;
80400;SDS011;69727;53.132;8.230;2023-09-19T01:43:26;7.63;;;1.85;;
80400;SDS011;69727;53.132;8.230;2023-09-19T01:46:06;5.00;;;1.60;;
80400;SDS011;69727;53.132;8.230;2023-09-19T01:51:37;6.82;;;1.95;;
80400;SDS011;69727;53.132;8.230;2023-09-19T01:54:12;8.88;;;2.00;;
80400;SDS011;69727;53.132;8.230;2023-09-19T01:56:53;5.15;;;2.25;;
80400;SDS011;69727;53.132;8.230;2023-09-19T01:59:31;5.13;;;1.83;;
80400;SDS011;69727;53.132;8.230;2023-09-19T02:02:16;4.63;;;1.65;;
80400;SDS011;69727;53.132;8.230;2023-09-19T02:04:43;7.53;;;1.77;;
80400;SDS011;69727;53.132;8.230;2023-09-19T02:07:08;5.75;;;1.52;;
80400;SDS011;69727;53.132;8.230;2023-09-19T02:09:34;5.90;;;1.50;;
80400;SDS011;69727;53.132;8.230;2023-09-19T02:12:04;5.53;;;1.55;;
80400;SDS011;69727;53.132;8.230;2023-09-19T02:14:30;7.70;;;1.60;;
80400;SDS011;69727;53.132;8.230;2023-09-19T02:16:55;5.88;;;1.50;;
80400;SDS011;69727;53.132;8.230;2023-09-19T02:19:21;8.70;;;1.58;;
80400;SDS011;69727;53.132;8.230;2023-09-19T02:21:47;7.03;;;1.63;;
80400;SDS011;69727;53.132;8.230;2023-09-19T02:24:13;3.83;;;1.33;;
80400;SDS011;69727;53.132;8.230;2023-09-19T02:26:40;4.85;;;1.35;;
80400;SDS011;69727;53.132;8.230;2023-09-19T02:29:05;5.40;;;1.63;;
80400;SDS011;69727;53.132;8.230;2023-09-19T02:31:31;5.43;;;1.30;;
80400;SDS011;69727;53.132;8.230;2023-09-19T02:33:56;8.85;;;1.60;;
80400;SDS011;69727;53.132;8.230;2023-09-19T02:36:22;4.47;;;1.50;;
80400;SDS011;69727;53.132;8.230;2023-09-19T02:38:48;9.05;;;1.88;;
80400;SDS011;69727;53.132;8.230;2023-09-19T02:41:14;6.20;;;1.75;;
80400;SDS011;69727;53.132;8.230;2023-09-19T02:43:39;5.55;;;1.80;;
80400;SDS011;69727;53.132;8.230;2023-09-19T02:46:05;7.53;;;1.73;;
80400;SDS011;69727;53.132;8.230;2023-09-19T02:48:30;8.43;;;1.92;;
80400;SDS011;69727;53.132;8.230;2023-09-19T02:50:57;4.95;;;1.77;;
80400;SDS011;69727;53.132;8.230;2023-09-19T02:53:22;4.82;;;1.70;;
80400;SDS011;69727;53.132;8.230;2023-09-19T02:55:49;6.43;;;1.90;;
80400;SDS011;69727;53.132;8.230;2023-09-19T02:58:14;5.50;;;1.80;;
80400;SDS011;69727;53.132;8.230;2023-09-19T03:00:40;7.85;;;1.92;;
80400;SDS011;69727;53.132;8.230;2023-09-19T03:03:12;10.25;;;2.15;;
80400;SDS011;69727;53.132;8.230;2023-09-19T03:05:38;7.38;;;1.88;;
80400;SDS011;69727;53.132;8.230;2023-09-19T03:08:03;10.35;;;1.90;;
80400;SDS011;69727;53.132;8.230;2023-09-19T03:10:29;8.23;;;2.03;;
80400;SDS011;69727;53.132;8.230;2023-09-19T03:12:56;5.28;;;1.77;;
80400;SDS011;69727;53.132;8.230;2023-09-19T03:15:22;6.53;;;2.40;;
80400;SDS011;69727;53.132;8.230;2023-09-19T03:17:47;8.80;;;2.15;;
80400;SDS011;69727;53.132;8.230;2023-09-19T03:20:14;8.13;;;2.15;;
80400;SDS011;69727;53.132;8.230;2023-09-19T03:22:42;10.35;;;2.22;;
80400;SDS011;69727;53.132;8.230;2023-09-19T03:25:08;12.95;;;2.03;;
80400;SDS011;69727;53.132;8.230;2023-09-19T03:27:38;5.70;;;1.70;;
80400;SDS011;69727;53.132;8.230;2023-09-19T03:30:04;9.57;;;2.53;;
80400;SDS011;69727;53.132;8.230;2023-09-19T03:32:34;12.45;;;2.67;;
80400;SDS011;69727;53.132;8.230;2023-09-19T03:35:00;11.25;;;2.25;;
80400;SDS011;69727;53.132;8.230;2023-09-19T03:37:26;9.90;;;2.05;;
80400;SDS011;69727;53.132;8.230;2023-09-19T03:39:51;9.25;;;2.05;;
80400;SDS011;69727;53.132;8.230;2023-09-19T03:42:16;6.83;;;2.07;;
80400;SDS011;69727;53.132;8.230;2023-09-19T03:44:42;5.40;;;1.80;;
80400;SDS011;69727;53.132;8.230;2023-09-19T03:47:09;6.78;;;1.60;;
80400;SDS011;69727;53.132;8.230;2023-09-19T03:49:38;6.28;;;1.90;;
80400;SDS011;69727;53.132;8.230;2023-09-19T03:52:33;8.98;;;2.08;;
80400;SDS011;69727;53.132;8.230;2023-09-19T03:55:02;8.90;;;2.05;;
80400;SDS011;69727;53.132;8.230;2023-09-19T03:57:35;7.85;;;2.10;;
80400;SDS011;69727;53.132;8.230;2023-09-19T04:00:06;6.60;;;1.90;;
80400;SDS011;69727;53.132;8.230;2023-09-19T04:02:58;6.07;;;1.73;;
80400;SDS011;69727;53.132;8.230;2023-09-19T04:06:00;7.57;;;2.08;;
80400;SDS011;69727;53.132;8.230;2023-09-19T04:09:28;6.55;;;1.83;;
80400;SDS011;69727;53.132;8.230;2023-09-19T04:12:40;11.57;;;2.00;;
80400;SDS011;69727;53.132;8.230;2023-09-19T04:15:55;12.32;;;3.13;;
80400;SDS011;69727;53.132;8.230;2023-09-19T04:18:20;8.15;;;1.70;;
80400;SDS011;69727;53.132;8.230;2023-09-19T04:20:57;7.32;;;1.73;;
80400;SDS011;69727;53.132;8.230;2023-09-19T04:23:46;8.23;;;1.90;;
80400;SDS011;69727;53.132;8.230;2023-09-19T04:26:33;7.30;;;1.85;;
80400;SDS011;69727;53.132;8.230;2023-09-19T04:29:03;8.52;;;2.05;;
80400;SDS011;69727;53.132;8.230;2023-09-19T04:31:48;10.13;;;2.03;;
80400;SDS011;69727;53.132;8.230;2023-09-19T04:34:44;9.38;;;2.22;;
80400;SDS011;69727;53.132;8.230;2023-09-19T04:37:27;7.95;;;2.30;;
80400;SDS011;69727;53.132;8.230;2023-09-19T04:40:11;7.50;;;2.03;;
80400;SDS011;69727;53.132;8.230;2023-09-19T04:46:37;9.77;;;2.35;;
80400;SDS011;69727;53.132;8.230;2023-09-19T04:49:38;8.85;;;2.33;;
80400;SDS011;69727;53.132;8.230;2023-09-19T04:55:21;8.57;;;2.20;;
80400;SDS011;69727;53.132;8.230;2023-09-19T04:57:48;7.07;;;1.92;;
80400;SDS011;69727;53.132;8.230;2023-09-19T05:00:15;5.53;;;1.95;;
80400;SDS011;69727;53.132;8.230;2023-09-19T05:02:51;12.52;;;2.30;;
80400;SDS011;69727;53.132;8.230;2023-09-19T05:05:17;9.60;;;2.10;;
80400;SDS011;69727;53.132;8.230;2023-09-19T05:07:44;8.52;;;2.20;;
80400;SDS011;69727;53.132;8.230;2023-09-19T05:10:12;10.57;;;2.10;;
80400;SDS011;69727;53.132;8.230;2023-09-19T05:18:17;7.73;;;1.80;;
80400;SDS011;69727;53.132;8.230;2023-09-19T05:20:43;11.23;;;2.27;;
80400;SDS011;69727;53.132;8.230;2023-09-19T05:23:08;7.38;;;2.40;;
80400;SDS011;69727;53.132;8.230;2023-09-19T05:25:36;10.45;;;2.40;;
80400;SDS011;69727;53.132;8.230;2023-09-19T05:28:04;7.93;;;2.08;;
80400;SDS011;69727;53.132;8.230;2023-09-19T05:30:34;9.77;;;2.00;;
80400;SDS011;69727;53.132;8.230;2023-09-19T05:33:08;9.38;;;2.33;;
80400;SDS011;69727;53.132;8.230;2023-09-19T05:35:34;6.68;;;1.92;;
80400;SDS011;69727;53.132;8.230;2023-09-19T05:42:02;9.35;;;2.03;;
80400;SDS011;69727;53.132;8.230;2023-09-19T05:44:29;8.00;;;2.17;;
80400;SDS011;69727;53.132;8.230;2023-09-19T05:46:54;7.73;;;2.70;;
80400;SDS011;69727;53.132;8.230;2023-09-19T05:49:21;11.43;;;2.40;;
80400;SDS011;69727;53.132;8.230;2023-09-19T05:51:47;9.30;;;2.25;;
80400;SDS011;69727;53.132;8.230;2023-09-19T05:54:12;14.13;;;2.50;;
80400;SDS011;69727;53.132;8.230;2023-09-19T05:56:38;8.13;;;2.00;;
80400;SDS011;69727;53.132;8.230;2023-09-19T05:59:07;10.25;;;2.95;;
80400;SDS011;69727;53.132;8.230;2023-09-19T06:01:32;11.00;;;2.58;;
80400;SDS011;69727;53.132;8.230;2023-09-19T06:03:59;8.38;;;2.17;;
80400;SDS011;69727;53.132;8.230;2023-09-19T06:06:25;11.73;;;2.10;;
80400;SDS011;69727;53.132;8.230;2023-09-19T06:08:51;9.07;;;2.83;;
80400;SDS011;69727;53.132;8.230;2023-09-19T06:11:16;7.25;;;2.45;;
80400;SDS011;69727;53.132;8.230;2023-09-19T06:16:12;11.30;;;2.40;;
80400;SDS011;69727;53.132;8.230;2023-09-19T06:18:38;16.17;;;3.22;;
80400;SDS011;69727;53.132;8.230;2023-09-19T06:21:03;9.45;;;2.08;;
80400;SDS011;69727;53.132;8.230;2023-09-19T06:23:35;14.63;;;3.05;;
80400;SDS011;69727;53.132;8.230;2023-09-19T06:28:26;13.87;;;2.47;;
80400;SDS011;69727;53.132;8.230;2023-09-19T06:30:53;12.05;;;2.33;;
80400;SDS011;69727;53.132;8.230;2023-09-19T06:33:19;8.68;;;2.30;;
80400;SDS011;69727;53.132;8.230;2023-09-19T06:35:46;11.07;;;2.50;;
80400;SDS011;69727;53.132;8.230;2023-09-19T06:38:12;12.52;;;2.53;;
80400;SDS011;69727;53.132;8.230;2023-09-19T06:40:38;11.18;;;2.63;;
80400;SDS011;69727;53.132;8.230;2023-09-19T06:43:04;9.50;;;2.47;;
80400;SDS011;69727;53.132;8.230;2023-09-19T06:45:30;9.35;;;2.22;;
80400;SDS011;69727;53.132;8.230;2023-09-19T06:47:57;9.20;;;2.72;;
80400;SDS011;69727;53.132;8.230;2023-09-19T06:50:26;10.57;;;2.60;;
80400;SDS011;69727;53.132;8.230;2023-09-19T06:52:54;13.55;;;2.42;;
80400;SDS011;69727;53.132;8.230;2023-09-19T06:55:32;11.48;;;2.70;;
80400;SDS011;69727;53.132;8.230;2023-09-19T06:57:57;13.55;;;2.53;;
80400;SDS011;69727;53.132;8.230;2023-09-19T07:00:23;12.75;;;2.67;;
80400;SDS011;69727;53.132;8.230;2023-09-19T07:05:29;11.27;;;2.10;;
80400;SDS011;69727;53.132;8.230;2023-09-19T07:07:56;8.82;;;2.38;;
80400;SDS011;69727;53.132;8.230;2023-09-19T07:10:25;13.30;;;2.50;;
80400;SDS011;69727;53.132;8.230;2023-09-19T07:13:01;10.55;;;2.45;;
80400;SDS011;69727;53.132;8.230;2023-09-19T07:15:34;10.40;;;2.30;;
80400;SDS011;69727;53.132;8.230;2023-09-19T07:18:01;10.00;;;2.25;;
80400;SDS011;69727;53.132;8.230;2023-09-19T07:20:27;11.23;;;2.22;;
80400;SDS011;69727;53.132;8.230;2023-09-19T07:22:56;11.45;;;2.08;;
80400;SDS011;69727;53.132;8.230;2023-09-19T07:25:24;16.85;;;2.75;;
80400;SDS011;69727;53.132;8.230;2023-09-19T07:27:50;12.52;;;2.00;;
80400;SDS011;69727;53.132;8.230;2023-09-19T07:30:16;9.75;;;2.75;;
80400;SDS011;69727;53.132;8.230;2023-09-19T07:32:42;13.05;;;1.95;;
80400;SDS011;69727;53.132;8.230;2023-09-19T07:35:07;8.55;;;2.63;;
80400;SDS011;69727;53.132;8.230;2023-09-19T07:37:33;11.50;;;2.10;;
80400;SDS011;69727;53.132;8.230;2023-09-19T07:39:59;10.05;;;2.10;;
80400;SDS011;69727;53.132;8.230;2023-09-19T07:42:32;7.88;;;1.92;;
80400;SDS011;69727;53.132;8.230;2023-09-19T07:45:02;9.75;;;2.47;;
80400;SDS011;69727;53.132;8.230;2023-09-19T07:47:28;7.57;;;2.20;;
80400;SDS011;69727;53.132;8.230;2023-09-19T07:49:55;7.53;;;1.73;;
80400;SDS011;69727;53.132;8.230;2023-09-19T07:52:21;10.63;;;2.22;;
80400;SDS011;69727;53.132;8.230;2023-09-19T07:54:47;10.57;;;2.03;;
80400;SDS011;69727;53.132;8.230;2023-09-19T07:57:14;8.48;;;1.80;;
80400;SDS011;69727;53.132;8.230;2023-09-19T07:59:40;10.25;;;2.22;;
80400;SDS011;69727;53.132;8.230;2023-09-19T08:02:07;9.18;;;2.00;;
80400;SDS011;69727;53.132;8.230;2023-09-19T08:04:41;8.57;;;2.03;;
80400;SDS011;69727;53.132;8.230;2023-09-19T08:07:11;6.18;;;1.80;;
80400;SDS011;69727;53.132;8.230;2023-09-19T08:09:38;10.50;;;2.10;;
80400;SDS011;69727;53.132;8.230;2023-09-19T08:12:04;8.52;;;2.20;;
80400;SDS011;69727;53.132;8.230;2023-09-19T08:14:30;12.30;;;1.88;;
80400;SDS011;69727;53.132;8.230;2023-09-19T08:16:58;12.93;;;1.90;;
80400;SDS011;69727;53.132;8.230;2023-09-19T08:19:24;23.73;;;2.03;;
80400;SDS011;69727;53.132;8.230;2023-09-19T08:21:54;7.65;;;1.50;;
80400;SDS011;69727;53.132;8.230;2023-09-19T08:24:29;8.05;;;1.90;;
80400;SDS011;69727;53.132;8.230;2023-09-19T08:26:55;7.80;;;1.95;;
80400;SDS011;69727;53.132;8.230;2023-09-19T08:29:24;7.85;;;1.63;;
80400;SDS011;69727;53.132;8.230;2023-09-19T08:31:53;6.93;;;1.70;;
80400;SDS011;69727;53.132;8.230;2023-09-19T08:34:22;9.05;;;1.90;;
80400;SDS011;69727;53.132;8.230;2023-09-19T08:36:52;6.57;;;2.00;;
80400;SDS011;69727;53.132;8.230;2023-09-19T08:39:21;10.07;;;2.40;;
80400;SDS011;69727;53.132;8.230;2023-09-19T08:41:47;6.78;;;1.67;;
80400;SDS011;69727;53.132;8.230;2023-09-19T08:44:12;8.15;;;1.85;;
80400;SDS011;69727;53.132;8.230;2023-09-19T08:46:38;11.90;;;1.70;;
80400;SDS011;69727;53.132;8.230;2023-09-19T08:51:45;9.57;;;1.70;;
80400;SDS011;69727;53.132;8.230;2023-09-19T08:54:22;8.02;;;1.77;;
80400;SDS011;69727;53.132;8.230;2023-09-19T08:56:51;11.25;;;1.95;;
80400;SDS011;69727;53.132;8.230;2023-09-19T08:59:21;6.93;;;1.55;;
80400;SDS011;69727;53.132;8.230;2023-09-19T09:01:50;10.23;;;2.05;;
80400;SDS011;69727;53.132;8.230;2023-09-19T09:04:18;7.30;;;1.40;;
80400;SDS011;69727;53.132;8.230;2023-09-19T09:06:45;7.95;;;1.80;;
80400;SDS011;69727;53.132;8.230;2023-09-19T09:11:40;6.13;;;1.70;;
80400;SDS011;69727;53.132;8.230;2023-09-19T09:14:05;8.05;;;1.98;;
80400;SDS011;69727;53.132;8.230;2023-09-19T09:16:32;8.20;;;2.35;;
80400;SDS011;69727;53.132;8.230;2023-09-19T09:18:58;9.30;;;2.88;;
80400;SDS011;69727;53.132;8.230;2023-09-19T09:21:26;7.93;;;1.35;;
80400;SDS011;69727;53.132;8.230;2023-09-19T09:23:53;11.25;;;2.10;;
80400;SDS011;69727;53.132;8.230;2023-09-19T09:29:23;6.78;;;1.60;;
80400;SDS011;69727;53.132;8.230;2023-09-19T09:34:45;10.68;;;1.70;;
80400;SDS011;69727;53.132;8.230;2023-09-19T09:37:16;8.30;;;1.92;;
80400;SDS011;69727;53.132;8.230;2023-09-19T09:39:55;7.00;;;1.70;;
80400;SDS011;69727;53.132;8.230;2023-09-19T09:47:59;10.35;;;1.60;;
80400;SDS011;69727;53.132;8.230;2023-09-19T09:50:29;13.38;;;2.60;;
80400;SDS011;69727;53.132;8.230;2023-09-19T09:53:25;10.07;;;1.70;;
80400;SDS011;69727;53.132;8.230;2023-09-19T09:55:57;8.90;;;1.60;;
80400;SDS011;69727;53.132;8.230;2023-09-19T09:58:35;6.45;;;1.63;;
80400;SDS011;69727;53.132;8.230;2023-09-19T10:01:02;8.52;;;1.83;;
80400;SDS011;69727;53.132;8.230;2023-09-19T10:03:34;8.20;;;1.98;;
80400;SDS011;69727;53.132;8.230;2023-09-19T10:06:12;11.55;;;2.22;;
80400;SDS011;69727;53.132;8.230;2023-09-19T10:09:06;12.00;;;1.90;;
80400;SDS011;69727;53.132;8.230;2023-09-19T10:11:46;10.20;;;2.70;;
80400;SDS011;69727;53.132;8.230;2023-09-19T10:14:22;9.98;;;2.10;;
80400;SDS011;69727;53.132;8.230;2023-09-19T10:16:54;8.35;;;2.13;;
80400;SDS011;69727;53.132;8.230;2023-09-19T10:19:42;11.50;;;2.08;;
80400;SDS011;69727;53.132;8.230;2023-09-19T10:22:16;8.60;;;1.90;;
80400;SDS011;69727;53.132;8.230;2023-09-19T10:24:47;8.32;;;1.75;;
80400;SDS011;69727;53.132;8.230;2023-09-19T10:27:14;10.10;;;1.98;;
80400;SDS011;69727;53.132;8.230;2023-09-19T10:29:41;10.93;;;2.42;;
80400;SDS011;69727;53.132;8.230;2023-09-19T10:32:09;8.85;;;2.00;;
80400;SDS011;69727;53.132;8.230;2023-09-19T10:34:43;8.82;;;2.10;;
80400;SDS011;69727;53.132;8.230;2023-09-19T10:37:10;10.43;;;1.85;;
80400;SDS011;69727;53.132;8.230;2023-09-19T10:39:39;8.45;;;2.20;;
80400;SDS011;69727;53.132;8.230;2023-09-19T10:42:06;7.88;;;2.65;;
80400;SDS011;69727;53.132;8.230;2023-09-19T10:44:33;9.18;;;1.90;;
80400;SDS011;69727;53.132;8.230;2023-09-19T10:47:07;12.63;;;2.13;;
80400;SDS011;69727;53.132;8.230;2023-09-19T10:49:34;8.88;;;2.05;;
80400;SDS011;69727;53.132;8.230;2023-09-19T10:51:59;10.20;;;2.00;;
80400;SDS011;69727;53.132;8.230;2023-09-19T10:54:28;10.32;;;2.00;;
80400;SDS011;69727;53.132;8.230;2023-09-19T10:56:57;8.65;;;1.77;;
80400;SDS011;69727;53.132;8.230;2023-09-19T10:59:24;12.23;;;2.17;;
80400;SDS011;69727;53.132;8.230;2023-09-19T11:01:54;9.25;;;1.90;;
80400;SDS011;69727;53.132;8.230;2023-09-19T11:04:30;12.13;;;2.10;;
80400;SDS011;69727;53.132;8.230;2023-09-19T11:15:10;8.63;;;2.00;;
80400;SDS011;69727;53.132;8.230;2023-09-19T11:26:41;8.57;;;1.75;;
80400;SDS011;69727;53.132;8.230;2023-09-19T11:29:30;9.60;;;2.10;;
80400;SDS011;69727;53.132;8.230;2023-09-19T11:31:56;6.43;;;2.03;;
80400;SDS011;69727;53.132;8.230;2023-09-19T11:39:40;8.70;;;1.92;;
80400;SDS011;69727;53.132;8.230;2023-09-19T11:42:45;9.15;;;1.85;;
80400;SDS011;69727;53.132;8.230;2023-09-19T11:48:14;8.30;;;1.70;;
80400;SDS011;69727;53.132;8.230;2023-09-19T11:50:46;7.57;;;1.77;;
80400;SDS011;69727;53.132;8.230;2023-09-19T11:53:14;13.60;;;2.20;;
80400;SDS011;69727;53.132;8.230;2023-09-19T11:55:41;8.30;;;2.05;;
80400;SDS011;69727;53.132;8.230;2023-09-19T11:58:08;7.22;;;1.83;;
80400;SDS011;69727;53.132;8.230;2023-09-19T12:00:35;7.97;;;2.03;;
80400;SDS011;69727;53.132;8.230;2023-09-19T12:03:07;7.55;;;2.83;;
80400;SDS011;69727;53.132;8.230;2023-09-19T12:05:37;12.75;;;1.90;;
80400;SDS011;69727;53.132;8.230;2023-09-19T12:08:06;8.63;;;2.30;;
80400;SDS011;69727;53.132;8.230;2023-09-19T12:10:45;10.38;;;1.77;;
80400;SDS011;69727;53.132;8.230;2023-09-19T12:13:17;8.52;;;2.65;;
80400;SDS011;69727;53.132;8.230;2023-09-19T12:15:43;7.28;;;1.90;;
80400;SDS011;69727;53.132;8.230;2023-09-19T12:18:11;10.32;;;1.90;;
80400;SDS011;69727;53.132;8.230;2023-09-19T12:21:00;6.88;;;2.00;;
80400;SDS011;69727;53.132;8.230;2023-09-19T12:23:29;6.32;;;2.25;;
80400;SDS011;69727;53.132;8.230;2023-09-19T12:25:55;8.88;;;2.05;;
80400;SDS011;69727;53.132;8.230;2023-09-19T12:28:22;7.38;;;1.83;;
80400;SDS011;69727;53.132;8.230;2023-09-19T12:30:55;11.23;;;2.58;;
80400;SDS011;69727;53.132;8.230;2023-09-19T12:33:20;6.75;;;2.00;;
80400;SDS011;69727;53.132;8.230;2023-09-19T12:35:50;9.02;;;1.90;;
80400;SDS011;69727;53.132;8.230;2023-09-19T12:38:24;9.07;;;1.80;;
80400;SDS011;69727;53.132;8.230;2023-09-19T12:41:01;9.57;;;2.10;;
80400;SDS011;69727;53.132;8.230;2023-09-19T12:43:30;8.75;;;1.85;;
80400;SDS011;69727;53.132;8.230;2023-09-19T12:45:58;9.15;;;1.77;;
80400;SDS011;69727;53.132;8.230;2023-09-19T12:48:25;10.60;;;2.15;;
80400;SDS011;69727;53.132;8.230;2023-09-19T12:51:01;10.60;;;2.35;;
80400;SDS011;69727;53.132;8.230;2023-09-19T12:53:43;9.15;;;2.08;;
80400;SDS011;69727;53.132;8.230;2023-09-19T12:56:14;8.13;;;2.10;;
80400;SDS011;69727;53.132;8.230;2023-09-19T13:01:23;11.63;;;2.67;;
80400;SDS011;69727;53.132;8.230;2023-09-19T13:04:11;8.23;;;2.10;;
80400;SDS011;69727;53.132;8.230;2023-09-19T13:06:47;12.32;;;2.15;;
80400;SDS011;69727;53.132;8.230;2023-09-19T13:09:16;6.57;;;1.67;;
80400;SDS011;69727;53.132;8.230;2023-09-19T13:11:43;8.25;;;2.00;;
80400;SDS011;69727;53.132;8.230;2023-09-19T13:14:17;11.55;;;2.28;;
80400;SDS011;69727;53.132;8.230;2023-09-19T13:17:06;7.90;;;2.22;;
80400;SDS011;69727;53.132;8.230;2023-09-19T13:25:13;8.35;;;2.05;;
80400;SDS011;69727;53.132;8.230;2023-09-19T13:27:46;9.68;;;1.83;;
80400;SDS011;69727;53.132;8.230;2023-09-19T13:30:21;5.35;;;1.40;;
80400;SDS011;69727;53.132;8.230;2023-09-19T13:32:48;10.15;;;1.77;;
80400;SDS011;69727;53.132;8.230;2023-09-19T13:35:14;8.52;;;2.00;;
80400;SDS011;69727;53.132;8.230;2023-09-19T13:37:41;6.55;;;1.40;;
80400;SDS011;69727;53.132;8.230;2023-09-19T13:40:10;9.20;;;1.60;;
80400;SDS011;69727;53.132;8.230;2023-09-19T13:42:37;8.18;;;1.70;;
80400;SDS011;69727;53.132;8.230;2023-09-19T13:45:03;5.25;;;1.40;;
80400;SDS011;69727;53.132;8.230;2023-09-19T13:47:32;7.55;;;2.25;;
80400;SDS011;69727;53.132;8.230;2023-09-19T13:49:58;6.10;;;1.80;;
80400;SDS011;69727;53.132;8.230;2023-09-19T13:52:25;7.75;;;1.55;;
80400;SDS011;69727;53.132;8.230;2023-09-19T13:54:53;8.98;;;2.00;;
80400;SDS011;69727;53.132;8.230;2023-09-19T13:57:21;7.72;;;2.08;;
80400;SDS011;69727;53.132;8.230;2023-09-19T13:59:50;7.10;;;1.73;;
80400;SDS011;69727;53.132;8.230;2023-09-19T14:02:16;7.72;;;1.77;;
80400;SDS011;69727;53.132;8.230;2023-09-19T14:04:43;7.88;;;1.58;;
80400;SDS011;69727;53.132;8.230;2023-09-19T14:07:09;5.88;;;1.77;;
80400;SDS011;69727;53.132;8.230;2023-09-19T14:09:35;10.02;;;2.05;;
80400;SDS011;69727;53.132;8.230;2023-09-19T14:12:01;8.80;;;1.50;;
80400;SDS011;69727;53.132;8.230;2023-09-19T14:14:27;8.68;;;1.65;;
80400;SDS011;69727;53.132;8.230;2023-09-19T14:17:01;9.88;;;1.58;;
80400;SDS011;69727;53.132;8.230;2023-09-19T14:19:27;9.93;;;1.98;;
80400;SDS011;69727;53.132;8.230;2023-09-19T14:21:52;8.40;;;1.85;;
80400;SDS011;69727;53.132;8.230;2023-09-19T14:24:21;5.07;;;1.60;;
80400;SDS011;69727;53.132;8.230;2023-09-19T14:26:47;5.68;;;1.80;;
80400;SDS011;69727;53.132;8.230;2023-09-19T14:29:12;6.28;;;1.95;;
80400;SDS011;69727;53.132;8.230;2023-09-19T14:31:38;9.95;;;2.15;;
80400;SDS011;69727;53.132;8.230;2023-09-19T14:34:05;6.40;;;1.80;;
80400;SDS011;69727;53.132;8.230;2023-09-19T14:36:31;8.18;;;1.70;;
80400;SDS011;69727;53.132;8.230;2023-09-19T14:38:58;7.50;;;1.63;;
80400;SDS011;69727;53.132;8.230;2023-09-19T14:41:23;8.43;;;2.03;;
80400;SDS011;69727;53.132;8.230;2023-09-19T14:43:50;8.90;;;1.83;;
80400;SDS011;69727;53.132;8.230;2023-09-19T14:46:17;9.75;;;2.00;;
80400;SDS011;69727;53.132;8.230;2023-09-19T14:48:44;9.82;;;2.13;;
80400;SDS011;69727;53.132;8.230;2023-09-19T14:51:37;7.65;;;2.00;;
80400;SDS011;69727;53.132;8.230;2023-09-19T14:54:24;9.80;;;1.73;;
80400;SDS011;69727;53.132;8.230;2023-09-19T14:56:50;6.15;;;1.58;;
80400;SDS011;69727;53.132;8.230;2023-09-19T14:59:29;8.45;;;1.70;;
80400;SDS011;69727;53.132;8.230;2023-09-19T15:01:57;7.53;;;1.70;;
80400;SDS011;69727;53.132;8.230;2023-09-19T15:04:36;7.38;;;1.75;;
80400;SDS011;69727;53.132;8.230;2023-09-19T15:07:05;9.30;;;1.80;;
80400;SDS011;69727;53.132;8.230;2023-09-19T15:09:31;8.80;;;2.13;;
80400;SDS011;69727;53.132;8.230;2023-09-19T15:11:58;5.88;;;1.95;;
80400;SDS011;69727;53.132;8.230;2023-09-19T15:14:24;6.60;;;1.33;;
80400;SDS011;69727;53.132;8.230;2023-09-19T15:16:50;6.22;;;1.60;;
80400;SDS011;69727;53.132;8.230;2023-09-19T15:22:15;5.57;;;1.38;;
80400;SDS011;69727;53.132;8.230;2023-09-19T15:24:45;5.45;;;1.70;;
80400;SDS011;69727;53.132;8.230;2023-09-19T15:27:19;8.35;;;1.48;;
80400;SDS011;69727;53.132;8.230;2023-09-19T15:30:47;10.27;;;1.60;;
80400;SDS011;69727;53.132;8.230;2023-09-19T15:33:21;7.13;;;1.63;;
80400;SDS011;69727;53.132;8.230;2023-09-19T16:21:01;4.82;;;1.08;;
80400;SDS011;69727;53.132;8.230;2023-09-19T16:23:27;7.00;;;1.33;;
80400;SDS011;69727;53.132;8.230;2023-09-19T16:26:00;5.82;;;1.63;;
80400;SDS011;69727;53.132;8.230;2023-09-19T16:28:33;9.75;;;1.55;;
80400;SDS011;69727;53.132;8.230;2023-09-19T16:31:17;8.82;;;1.50;;
80400;SDS011;69727;53.132;8.230;2023-09-19T16:34:00;5.65;;;1.20;;
80400;SDS011;69727;53.132;8.230;2023-09-19T16:36:28;7.65;;;1.50;;
80400;SDS011;69727;53.132;8.230;2023-09-19T16:38:54;5.50;;;2.10;;
80400;SDS011;69727;53.132;8.230;2023-09-19T16:41:20;6.25;;;1.20;;
80400;SDS011;69727;53.132;8.230;2023-09-19T16:43:48;6.78;;;1.52;;
80400;SDS011;69727;53.132;8.230;2023-09-19T16:46:14;7.57;;;1.80;;
80400;SDS011;69727;53.132;8.230;2023-09-19T16:48:44;8.93;;;1.75;;
80400;SDS011;69727;53.132;8.230;2023-09-19T16:51:12;6.85;;;1.50;;
80400;SDS011;69727;53.132;8.230;2023-09-19T16:53:39;5.70;;;1.58;;
80400;SDS011;69727;53.132;8.230;2023-09-19T16:56:10;5.43;;;1.20;;
80400;SDS011;69727;53.132;8.230;2023-09-19T16:58:39;5.32;;;1.25;;
80400;SDS011;69727;53.132;8.230;2023-09-19T17:01:16;5.30;;;1.30;;
80400;SDS011;69727;53.132;8.230;2023-09-19T17:04:04;4.20;;;1.30;;
80400;SDS011;69727;53.132;8.230;2023-09-19T17:06:34;4.28;;;1.40;;
80400;SDS011;69727;53.132;8.230;2023-09-19T17:09:02;5.07;;;1.27;;
80400;SDS011;69727;53.132;8.230;2023-09-19T17:11:29;5.82;;;1.20;;
80400;SDS011;69727;53.132;8.230;2023-09-19T17:13:54;5.20;;;1.30;;
80400;SDS011;69727;53.132;8.230;2023-09-19T17:16:22;4.82;;;1.42;;
80400;SDS011;69727;53.132;8.230;2023-09-19T17:18:54;7.95;;;1.30;;